createdAt,value
2022-07-31T00:05:03.905Z,17.30
2022-07-31T00:07:31.107Z,17.30
2022-07-31T00:10:00.653Z,17.30
2022-07-31T00:15:26.396Z,17.20
2022-07-31T00:18:00.441Z,17.20
2022-07-31T00:21:01.194Z,17.20
2022-07-31T00:23:28.913Z,17.20
2022-07-31T00:25:55.873Z,17.20
2022-07-31T00:28:22.640Z,17.20
2022-07-31T00:30:49.481Z,17.10
2022-07-31T00:33:16.225Z,17.10
2022-07-31T00:35:44.045Z,17.10
2022-07-31T00:38:27.281Z,17.10
2022-07-31T00:40:54.703Z,17.10
2022-07-31T00:43:21.621Z,17.10
2022-07-31T00:45:51.726Z,17.10
2022-07-31T00:48:26.010Z,17.10
2022-07-31T00:50:55.221Z,17.10
2022-07-31T00:53:21.988Z,17.10
2022-07-31T00:55:51.966Z,17.00
2022-07-31T00:58:20.214Z,17.00
2022-07-31T01:00:47.580Z,17.00
2022-07-31T01:03:14.724Z,17.00
2022-07-31T01:05:41.865Z,17.00
2022-07-31T01:08:08.845Z,17.00
2022-07-31T01:10:35.552Z,17.00
2022-07-31T01:13:08.440Z,17.00
2022-07-31T01:15:36.918Z,17.00
2022-07-31T01:18:04.895Z,17.00
2022-07-31T01:21:17.566Z,17.00
2022-07-31T01:24:05.203Z,17.00
2022-07-31T01:26:44.074Z,17.10
2022-07-31T01:29:57.437Z,17.10
2022-07-31T01:32:46.675Z,17.10
2022-07-31T01:38:45.283Z,17.00
2022-07-31T01:41:23.734Z,17.00
2022-07-31T01:44:00.303Z,17.00
2022-07-31T01:46:31.176Z,17.00
2022-07-31T01:49:25.273Z,17.00
2022-07-31T01:52:15.062Z,17.00
2022-07-31T01:57:27.313Z,16.90
2022-07-31T02:00:33.850Z,16.90
2022-07-31T02:03:43.636Z,16.90
2022-07-31T02:06:10.432Z,16.90
2022-07-31T02:08:38.402Z,16.90
2022-07-31T02:11:15.211Z,16.90
2022-07-31T02:14:14.218Z,16.90
2022-07-31T02:16:46.660Z,16.90
2022-07-31T02:19:24.018Z,16.90
2022-07-31T02:21:56.802Z,16.80
2022-07-31T02:24:29.271Z,16.80
2022-07-31T02:27:05.023Z,16.80
2022-07-31T02:29:55.397Z,16.80
2022-07-31T02:32:41.368Z,16.80
2022-07-31T05:07:35.097Z,17.10
2022-07-31T06:16:50.298Z,17.90
2022-07-31T06:51:39.200Z,18.30
2022-07-31T07:01:17.180Z,18.40
2022-07-31T07:04:22.424Z,18.40
2022-07-31T07:17:00.185Z,18.70
2022-07-31T07:20:07.228Z,18.80
2022-07-31T07:22:55.064Z,18.80
2022-07-31T07:26:53.281Z,19.00
2022-07-31T07:50:51.390Z,20.40
2022-07-31T07:56:56.774Z,20.70
2022-07-31T07:59:42.632Z,20.80
2022-07-31T08:02:24.209Z,20.90
2022-07-31T08:11:17.290Z,21.20
2022-07-31T08:48:28.834Z,22.20
2022-07-31T08:51:51.412Z,22.20
2022-07-31T09:14:27.923Z,22.70
2022-07-31T09:17:57.350Z,22.80
2022-07-31T09:20:49.298Z,23.00
2022-07-31T09:26:38.661Z,23.40
2022-07-31T09:29:18.819Z,23.40
2022-07-31T09:32:13.194Z,23.50
2022-07-31T09:42:22.101Z,24.00
2022-07-31T09:53:05.435Z,24.80
2022-07-31T09:56:03.565Z,24.60
2022-07-31T10:09:30.834Z,24.60
2022-07-31T10:12:44.880Z,24.60
2022-07-31T10:18:55.914Z,24.70
2022-07-31T10:22:03.259Z,24.80
2022-07-31T10:33:48.863Z,25.20
2022-07-31T10:36:44.707Z,25.20
2022-07-31T10:39:30.142Z,25.20
2022-07-31T10:42:33.455Z,25.20
2022-07-31T10:48:23.786Z,25.30
2022-07-31T10:51:20.211Z,25.30
2022-07-31T10:54:37.026Z,25.30
2022-07-31T10:57:57.212Z,25.60
2022-07-31T11:02:27.893Z,26.10
2022-07-31T11:04:35.120Z,26.20
2022-07-31T11:15:25.655Z,26.70
2022-07-31T11:18:23.222Z,26.80
2022-07-31T11:24:30.681Z,27.30
2022-07-31T11:27:32.857Z,27.40
2022-07-31T11:30:38.842Z,27.70
2022-07-31T11:33:48.816Z,28.10
2022-07-31T11:36:38.463Z,28.00
2022-07-31T11:39:15.860Z,27.70
2022-07-31T11:41:52.058Z,27.40
2022-07-31T11:44:40.325Z,27.10
2022-07-31T11:48:10.062Z,26.90
2022-07-31T11:50:20.441Z,26.70
2022-07-31T11:53:57.797Z,26.40
2022-07-31T12:03:14.840Z,27.30
2022-07-31T12:06:47.697Z,27.70
2022-07-31T12:10:00.358Z,27.70
2022-07-31T13:01:30.331Z,26.30
2022-07-31T13:07:18.882Z,26.10
2022-07-31T13:23:22.696Z,27.20
2022-07-31T13:26:02.551Z,27.50
2022-07-31T13:28:56.658Z,27.50
2022-07-31T13:31:26.137Z,27.50
2022-07-31T13:33:58.352Z,27.30
2022-07-31T13:36:35.621Z,27.10
2022-07-31T13:39:26.706Z,26.80
2022-07-31T13:42:57.971Z,26.50
2022-07-31T13:55:39.412Z,25.60
2022-07-31T13:58:06.343Z,25.50
2022-07-31T14:00:33.185Z,25.50
2022-07-31T14:03:00.096Z,25.40
2022-07-31T14:05:27.553Z,25.30
2022-07-31T14:07:55.514Z,25.20
2022-07-31T14:10:25.542Z,25.20
2022-07-31T14:12:56.110Z,25.10
2022-07-31T14:15:24.591Z,25.10
2022-07-31T14:17:56.414Z,25.00
2022-07-31T14:20:23.782Z,25.00
2022-07-31T14:22:50.764Z,25.00
2022-07-31T14:25:20.625Z,24.90
2022-07-31T14:27:47.473Z,24.90
2022-07-31T14:30:19.852Z,24.80
2022-07-31T14:32:53.250Z,24.70
2022-07-31T14:35:20.200Z,24.70
2022-07-31T14:37:48.012Z,24.60
2022-07-31T14:40:16.320Z,24.60
2022-07-31T14:42:46.355Z,24.60
2022-07-31T14:45:13.521Z,24.60
2022-07-31T14:47:40.415Z,24.60
2022-07-31T14:50:11.981Z,24.60
2022-07-31T14:52:41.216Z,24.60
2022-07-31T14:55:10.071Z,24.50
2022-07-31T14:57:37.059Z,24.40
2022-07-31T15:00:26.414Z,24.30
2022-07-31T15:03:35.164Z,24.20
2022-07-31T15:06:39.869Z,24.10
2022-07-31T15:08:51.507Z,24.00
2022-07-31T15:11:18.968Z,23.90
2022-07-31T15:13:46.055Z,23.80
2022-07-31T15:16:21.782Z,23.70
2022-07-31T15:29:05.518Z,23.20
2022-07-31T15:31:40.010Z,23.20
2022-07-31T15:34:10.737Z,23.10
2022-07-31T15:37:11.633Z,23.00
2022-07-31T15:45:21.678Z,22.90
2022-07-31T15:52:29.833Z,22.70
2022-07-31T16:36:16.905Z,21.00
2022-07-31T16:38:54.906Z,20.90
2022-07-31T16:41:30.747Z,20.80
2022-07-31T16:43:57.629Z,20.70
2022-07-31T16:46:24.475Z,20.70
2022-07-31T16:48:51.391Z,20.60
2022-07-31T16:51:18.301Z,20.50
2022-07-31T16:54:11.367Z,20.40
2022-07-31T16:56:32.510Z,20.30
2022-07-31T16:59:01.404Z,20.20
2022-07-31T17:01:57.905Z,20.20
2022-07-31T17:04:15.180Z,20.10
2022-07-31T17:06:42.010Z,20.10
2022-07-31T17:09:18.585Z,20.00
2022-07-31T17:11:47.620Z,20.00
2022-07-31T17:14:16.045Z,19.90
2022-07-31T17:16:47.110Z,19.90
2022-07-31T17:19:16.728Z,19.90
2022-07-31T17:22:04.326Z,19.80
2022-07-31T17:24:32.035Z,19.80
2022-07-31T17:26:59.811Z,19.80
2022-07-31T17:29:26.757Z,19.80
2022-07-31T17:31:53.667Z,19.70
2022-07-31T17:34:20.627Z,19.70
2022-07-31T17:36:50.151Z,19.60
2022-07-31T17:39:17.085Z,19.60
2022-07-31T17:41:44.180Z,19.60
2022-07-31T17:44:11.402Z,19.60
2022-07-31T17:46:48.104Z,19.60
2022-07-31T17:49:19.556Z,19.60
2022-07-31T17:51:57.871Z,19.60
2022-07-31T17:54:28.981Z,19.60
2022-07-31T17:56:56.073Z,19.60
2022-07-31T17:59:23.279Z,19.50
2022-07-31T18:01:52.255Z,19.50
2022-07-31T18:04:21.087Z,19.50
2022-07-31T18:06:54.219Z,19.50
2022-07-31T18:09:23.475Z,19.50
2022-07-31T18:11:51.477Z,19.50
2022-07-31T18:14:18.869Z,19.50
2022-07-31T18:16:46.165Z,19.50
2022-07-31T18:19:25.744Z,19.50
2022-07-31T18:22:49.857Z,19.40
2022-07-31T18:25:17.503Z,19.40
2022-07-31T18:27:44.376Z,19.40
2022-07-31T18:30:11.750Z,19.30
2022-07-31T18:32:52.597Z,19.30
2022-07-31T18:35:20.333Z,19.30
2022-07-31T18:37:47.183Z,19.30
2022-07-31T18:40:14.165Z,19.20
2022-07-31T18:42:41.069Z,19.20
2022-07-31T18:45:08.583Z,19.20
2022-07-31T18:47:35.616Z,19.20
2022-07-31T18:51:00.670Z,19.20
2022-07-31T18:52:50.248Z,19.20
2022-07-31T18:55:17.099Z,19.10
2022-07-31T18:57:44.176Z,19.10
2022-07-31T19:00:11.500Z,19.10
2022-07-31T19:02:38.428Z,19.10
2022-07-31T19:05:07.544Z,19.10
2022-07-31T19:07:48.988Z,19.10
2022-07-31T19:10:29.633Z,19.00
2022-07-31T19:12:59.727Z,19.10
2022-07-31T19:15:26.566Z,19.00
2022-07-31T19:18:04.909Z,19.00
2022-07-31T19:20:50.885Z,19.00
2022-07-31T19:23:21.288Z,18.90
2022-07-31T19:26:02.677Z,18.90
2022-07-31T19:28:36.894Z,18.90
2022-07-31T19:31:03.837Z,18.80
2022-07-31T19:33:30.877Z,18.80
2022-07-31T19:36:01.997Z,18.80
2022-07-31T19:38:30.718Z,18.80
2022-07-31T19:40:57.615Z,18.70
2022-07-31T19:43:24.794Z,18.70
2022-07-31T19:46:10.600Z,18.70
2022-07-31T19:48:40.858Z,18.70
2022-07-31T19:51:08.139Z,18.70
2022-07-31T19:53:35.507Z,18.70
2022-07-31T19:56:05.718Z,18.60
2022-07-31T19:58:34.710Z,18.60
2022-07-31T20:01:05.736Z,18.60
2022-07-31T20:03:35.007Z,18.60
2022-07-31T20:06:02.811Z,18.60
2022-07-31T20:08:33.668Z,18.50
2022-07-31T20:11:03.733Z,18.50
2022-07-31T20:13:35.130Z,18.50
2022-07-31T20:16:02.034Z,18.50
2022-07-31T20:18:32.251Z,18.50
2022-07-31T20:21:07.400Z,18.50
2022-07-31T20:23:38.303Z,18.50
2022-07-31T20:26:24.712Z,18.50
2022-07-31T20:29:00.897Z,18.50
2022-07-31T20:31:46.990Z,18.50
2022-07-31T20:34:33.242Z,18.50
2022-07-31T20:37:00.176Z,18.50
2022-07-31T20:39:33.272Z,18.50
2022-07-31T20:42:01.121Z,18.60
2022-07-31T20:44:27.977Z,18.50
2022-07-31T20:46:54.835Z,18.50
2022-07-31T20:49:34.688Z,18.50
2022-07-31T20:52:03.567Z,18.50
2022-07-31T20:54:34.528Z,18.50
2022-07-31T20:57:01.772Z,18.50
2022-07-31T20:59:28.685Z,18.50
2022-07-31T21:01:55.609Z,18.50
2022-07-31T21:04:22.501Z,18.50
2022-07-31T21:06:49.309Z,18.50
2022-07-31T21:09:16.202Z,18.50
2022-07-31T21:11:43.013Z,18.50
2022-07-31T21:14:09.873Z,18.50
2022-07-31T21:16:36.747Z,18.50
2022-07-31T21:19:03.785Z,18.50
2022-07-31T21:21:30.711Z,18.50
2022-07-31T21:24:00.696Z,18.50
2022-07-31T21:26:29.279Z,18.50
2022-07-31T21:28:56.391Z,18.50
2022-07-31T21:31:23.469Z,18.50
2022-07-31T21:33:50.583Z,18.50
2022-07-31T21:36:18.514Z,18.50
2022-07-31T21:38:45.624Z,18.50
2022-07-31T21:41:12.893Z,18.50
2022-07-31T21:43:58.418Z,18.50
2022-07-31T21:46:27.842Z,18.50
2022-07-31T21:48:55.010Z,18.50
2022-07-31T21:51:23.037Z,18.50
2022-07-31T21:53:49.978Z,18.50
2022-07-31T21:56:17.010Z,18.50
2022-07-31T21:58:44.640Z,18.50
2022-07-31T22:01:11.741Z,18.50
2022-07-31T22:03:38.835Z,18.50
2022-07-31T22:06:26.205Z,18.50
2022-07-31T22:08:53.270Z,18.50
2022-07-31T22:11:20.256Z,18.40
2022-07-31T22:13:47.074Z,18.40
2022-07-31T22:16:13.944Z,18.40
2022-07-31T22:18:42.119Z,18.40
2022-07-31T22:21:09.164Z,18.30
2022-07-31T22:23:36.271Z,18.30
2022-07-31T22:26:03.410Z,18.30
2022-07-31T22:28:30.567Z,18.30
2022-07-31T22:30:59.054Z,18.30
2022-07-31T22:33:26.053Z,18.30
2022-07-31T22:35:59.969Z,18.30
2022-07-31T22:38:31.014Z,18.30
2022-07-31T22:40:59.284Z,18.30
2022-07-31T22:44:09.592Z,18.30
2022-07-31T22:46:14.062Z,18.30
2022-07-31T22:48:41.315Z,18.30
2022-07-31T22:51:08.844Z,18.20
2022-07-31T22:53:36.316Z,18.20
2022-07-31T22:56:03.449Z,18.20
2022-07-31T22:58:30.543Z,18.20
2022-07-31T23:00:57.557Z,18.20
2022-07-31T23:03:24.438Z,18.20
2022-07-31T23:06:02.999Z,18.20
2022-07-31T23:08:38.359Z,18.20
2022-07-31T23:11:05.176Z,18.30
2022-07-31T23:13:31.988Z,18.30
2022-07-31T23:15:59.640Z,18.20
2022-07-31T23:18:26.584Z,18.20
2022-07-31T23:20:53.437Z,18.30
2022-07-31T23:23:20.263Z,18.30
2022-07-31T23:25:47.103Z,18.20
2022-07-31T23:28:13.912Z,18.20
2022-07-31T23:30:40.749Z,18.20
2022-07-31T23:33:07.565Z,18.20
2022-07-31T23:35:34.441Z,18.20
2022-07-31T23:38:01.243Z,18.20
2022-07-31T23:40:28.280Z,18.20
2022-07-31T23:42:55.087Z,18.20
2022-07-31T23:45:23.498Z,18.20
2022-07-31T23:47:50.806Z,18.20
2022-07-31T23:50:17.852Z,18.20
2022-07-31T23:52:44.860Z,18.20
2022-07-31T23:55:11.971Z,18.20
2022-07-31T23:57:39.953Z,18.20
